JAF2HN EBOS-LGIR
Flight info
| Callsign | JAF2HN |
|---|---|
| Flight time | 3h 6m |
| Altitude | 39000 |
| Route | FERDI UL607 SPI DCT ARCKY DCT LIRSU DCT ULNOK DCT VIBOM DCT NOMBO DCT RIDAR DCT RADIZ DCT ABISO DCT TUPUS DCT MAVAR DCT BITLA UN132 KEA UL607 NETIS L607 GIVIS UT514 XAVIS |
| Aircraft | B737/M-SDE2E3FGHIRWXY/LB1 |
Departure
| Time | 2026-04-30 10:44 |
|---|---|
| Airport | Ostend-Bruges International Airport (EBOS) |
Arrival
| Time | 2026-04-30 13:50 |
|---|---|
| Airport | Heraklion International Nikos Kazantzakis Airport (LGIR) |
| Time | Latitude | Longitude | Altitude | Speed | Heading |
|---|---|---|---|---|---|
| 2026-04-30 10:18 | 51.20344 | 2.86983 | 25 ft | 0 kts | 345° |
| 2026-04-30 10:35 | 51.20328 | 2.86990 | 24 ft | 4 kts | 346° |
| 2026-04-30 10:35 | 51.20302 | 2.86999 | 22 ft | 4 kts | 347° |
| 2026-04-30 10:35 | 51.20278 | 2.87008 | 25 ft | 3 kts | 345° |
| 2026-04-30 10:36 | 51.20258 | 2.87024 | 22 ft | 4 kts | 295° |
| 2026-04-30 10:36 | 51.20258 | 2.87059 | 23 ft | 4 kts | 247° |
| 2026-04-30 10:36 | 51.20267 | 2.87094 | 22 ft | 1 kts | 259° |
| 2026-04-30 10:36 | 51.20267 | 2.87095 | 22 ft | 1 kts | 259° |
| 2026-04-30 10:38 | 51.20265 | 2.87084 | 23 ft | 3 kts | 259° |
| 2026-04-30 10:38 | 51.20259 | 2.87032 | 26 ft | 7 kts | 258° |
| 2026-04-30 10:39 | 51.20246 | 2.86944 | 22 ft | 9 kts | 257° |
| 2026-04-30 10:39 | 51.20232 | 2.86846 | 22 ft | 9 kts | 256° |
| 2026-04-30 10:39 | 51.20217 | 2.86751 | 22 ft | 9 kts | 252° |
| 2026-04-30 10:39 | 51.20168 | 2.86704 | 22 ft | 8 kts | 189° |
| 2026-04-30 10:40 | 51.20110 | 2.86691 | 22 ft | 8 kts | 187° |
| 2026-04-30 10:40 | 51.20055 | 2.86677 | 22 ft | 8 kts | 204° |
| 2026-04-30 10:40 | 51.20023 | 2.86601 | 22 ft | 9 kts | 253° |
| 2026-04-30 10:40 | 51.20005 | 2.86480 | 22 ft | 13 kts | 256° |
| 2026-04-30 10:41 | 51.19980 | 2.86316 | 24 ft | 17 kts | 258° |
| 2026-04-30 10:41 | 51.19950 | 2.86112 | 24 ft | 21 kts | 256° |
| 2026-04-30 10:41 | 51.19914 | 2.85872 | 22 ft | 24 kts | 256° |
| 2026-04-30 10:41 | 51.19874 | 2.85613 | 22 ft | 23 kts | 256° |
| 2026-04-30 10:42 | 51.19839 | 2.85375 | 22 ft | 13 kts | 252° |
| 2026-04-30 10:42 | 51.19781 | 2.85278 | 22 ft | 11 kts | 212° |
| 2026-04-30 10:42 | 51.19712 | 2.85268 | 21 ft | 10 kts | 165° |
| 2026-04-30 10:42 | 51.19665 | 2.85304 | 21 ft | 6 kts | 113° |
| 2026-04-30 10:43 | 51.19670 | 2.85368 | 21 ft | 6 kts | 77° |
| 2026-04-30 10:43 | 51.19690 | 2.85507 | 21 ft | 36 kts | 76° |
| 2026-04-30 10:43 | 51.19801 | 2.86247 | 21 ft | 101 kts | 76° |
| 2026-04-30 10:43 | 51.20007 | 2.87618 | 141 ft | 140 kts | 77° |
| 2026-04-30 10:44 | 51.20220 | 2.89096 | 757 ft | 140 kts | 78° |
| 2026-04-30 10:44 | 51.20463 | 2.90597 | 1425 ft | 142 kts | 81° |
| 2026-04-30 10:44 | 51.20690 | 2.92123 | 1960 ft | 155 kts | 82° |
| 2026-04-30 10:44 | 51.20956 | 2.93937 | 2244 ft | 182 kts | 82° |
| 2026-04-30 10:45 | 51.21271 | 2.96028 | 2520 ft | 206 kts | 81° |
| 2026-04-30 10:45 | 51.21635 | 2.98305 | 3011 ft | 215 kts | 81° |
| 2026-04-30 10:45 | 51.21626 | 3.00664 | 3740 ft | 213 kts | 105° |
| 2026-04-30 10:45 | 51.21172 | 3.02996 | 4320 ft | 229 kts | 120° |
| 2026-04-30 10:46 | 51.20212 | 3.05093 | 4998 ft | 239 kts | 127° |
| 2026-04-30 10:46 | 51.19169 | 3.07188 | 5807 ft | 243 kts | 127° |
| 2026-04-30 10:46 | 51.18115 | 3.09311 | 6658 ft | 247 kts | 127° |
| 2026-04-30 10:46 | 51.17041 | 3.11481 | 7488 ft | 251 kts | 127° |
| 2026-04-30 10:47 | 51.15953 | 3.13690 | 8371 ft | 255 kts | 127° |
| 2026-04-30 10:47 | 51.14847 | 3.15936 | 9267 ft | 260 kts | 127° |
| 2026-04-30 10:47 | 51.13723 | 3.18223 | 10183 ft | 265 kts | 127° |
| 2026-04-30 10:47 | 51.12568 | 3.20579 | 10806 ft | 279 kts | 127° |
| 2026-04-30 10:48 | 51.11316 | 3.23137 | 11011 ft | 307 kts | 127° |
| 2026-04-30 10:48 | 51.09944 | 3.25937 | 11215 ft | 333 kts | 127° |
| 2026-04-30 10:48 | 51.08487 | 3.28906 | 11702 ft | 346 kts | 127° |
| 2026-04-30 10:48 | 51.06989 | 3.31953 | 12442 ft | 352 kts | 127° |
| 2026-04-30 10:49 | 51.05474 | 3.35032 | 13252 ft | 356 kts | 126° |
| 2026-04-30 10:49 | 51.03940 | 3.38149 | 14050 ft | 361 kts | 126° |
| 2026-04-30 10:49 | 51.02379 | 3.41316 | 14778 ft | 365 kts | 126° |
| 2026-04-30 10:49 | 51.00799 | 3.44520 | 15517 ft | 370 kts | 126° |
| 2026-04-30 10:50 | 50.99219 | 3.47720 | 16256 ft | 375 kts | 127° |
| 2026-04-30 10:50 | 50.97600 | 3.50994 | 17015 ft | 379 kts | 127° |
| 2026-04-30 10:50 | 50.95963 | 3.54302 | 17753 ft | 383 kts | 127° |
| 2026-04-30 10:50 | 50.94306 | 3.57646 | 18461 ft | 388 kts | 127° |
| 2026-04-30 10:51 | 50.92625 | 3.61030 | 19080 ft | 393 kts | 127° |
| 2026-04-30 10:51 | 50.91109 | 3.64617 | 19724 ft | 394 kts | 114° |
| 2026-04-30 10:51 | 50.90205 | 3.68731 | 20327 ft | 397 kts | 106° |
| 2026-04-30 10:51 | 50.89416 | 3.72955 | 20941 ft | 401 kts | 106° |
| 2026-04-30 10:52 | 50.88628 | 3.77210 | 21549 ft | 405 kts | 105° |
| 2026-04-30 10:52 | 50.87822 | 3.81515 | 22144 ft | 409 kts | 106° |
| 2026-04-30 10:52 | 50.87000 | 3.85848 | 22674 ft | 414 kts | 106° |
| 2026-04-30 10:52 | 50.86159 | 3.90220 | 23215 ft | 417 kts | 106° |
| 2026-04-30 10:53 | 50.85304 | 3.94626 | 23822 ft | 420 kts | 106° |
| 2026-04-30 10:53 | 50.84437 | 3.99067 | 24285 ft | 424 kts | 106° |
| 2026-04-30 10:53 | 50.83561 | 4.03537 | 24746 ft | 427 kts | 106° |
| 2026-04-30 10:53 | 50.82678 | 4.08027 | 25258 ft | 428 kts | 106° |
| 2026-04-30 10:54 | 50.81791 | 4.12530 | 25757 ft | 430 kts | 107° |
| 2026-04-30 10:54 | 50.80895 | 4.17064 | 26196 ft | 433 kts | 107° |
| 2026-04-30 10:54 | 50.79994 | 4.21618 | 26621 ft | 435 kts | 107° |
| 2026-04-30 10:54 | 50.79089 | 4.26182 | 27118 ft | 436 kts | 107° |
| 2026-04-30 10:55 | 50.78180 | 4.30757 | 27576 ft | 438 kts | 107° |
| 2026-04-30 10:55 | 50.77263 | 4.35359 | 27980 ft | 440 kts | 107° |
| 2026-04-30 10:55 | 50.76339 | 4.39989 | 28341 ft | 443 kts | 107° |
| 2026-04-30 10:55 | 50.75410 | 4.44634 | 28718 ft | 445 kts | 107° |
| 2026-04-30 10:56 | 50.74485 | 4.49247 | 29114 ft | 447 kts | 107° |
| 2026-04-30 10:56 | 50.73534 | 4.53978 | 29627 ft | 445 kts | 107° |
| 2026-04-30 10:56 | 50.72599 | 4.58615 | 30282 ft | 442 kts | 107° |
| 2026-04-30 10:56 | 50.71691 | 4.63157 | 30808 ft | 439 kts | 107° |
| 2026-04-30 10:57 | 50.70795 | 4.67762 | 31236 ft | 438 kts | 106° |
| 2026-04-30 10:57 | 50.69909 | 4.72357 | 31616 ft | 438 kts | 106° |
| 2026-04-30 10:57 | 50.69023 | 4.76941 | 32057 ft | 436 kts | 106° |
| 2026-04-30 10:57 | 50.68136 | 4.81512 | 32517 ft | 434 kts | 106° |
| 2026-04-30 10:58 | 50.67250 | 4.86051 | 32957 ft | 433 kts | 106° |
| 2026-04-30 10:58 | 50.66362 | 4.90578 | 33344 ft | 432 kts | 106° |
| 2026-04-30 10:58 | 50.65463 | 4.95090 | 33743 ft | 431 kts | 107° |
| 2026-04-30 10:58 | 50.64546 | 4.99588 | 34162 ft | 429 kts | 107° |
| 2026-04-30 10:59 | 50.63627 | 5.04056 | 34531 ft | 428 kts | 107° |
| 2026-04-30 10:59 | 50.62707 | 5.08516 | 34805 ft | 429 kts | 107° |
| 2026-04-30 10:59 | 50.61783 | 5.12992 | 35042 ft | 429 kts | 107° |
| 2026-04-30 10:59 | 50.60860 | 5.17466 | 35315 ft | 429 kts | 107° |
| 2026-04-30 11:00 | 50.59938 | 5.21932 | 35607 ft | 429 kts | 107° |
| 2026-04-30 11:00 | 50.59013 | 5.26394 | 35874 ft | 429 kts | 107° |
| 2026-04-30 11:00 | 50.58090 | 5.30854 | 36123 ft | 429 kts | 107° |
| 2026-04-30 11:00 | 50.57176 | 5.35262 | 36377 ft | 429 kts | 107° |
| 2026-04-30 11:01 | 50.56250 | 5.39718 | 36638 ft | 429 kts | 107° |
| 2026-04-30 11:01 | 50.55321 | 5.44173 | 36875 ft | 429 kts | 107° |
| 2026-04-30 11:01 | 50.54389 | 5.48634 | 37118 ft | 429 kts | 107° |
| 2026-04-30 11:01 | 50.53472 | 5.53016 | 37357 ft | 429 kts | 107° |
| 2026-04-30 11:02 | 50.52522 | 5.57542 | 37606 ft | 429 kts | 107° |
| 2026-04-30 11:02 | 50.51493 | 5.61944 | 37797 ft | 431 kts | 112° |
| 2026-04-30 11:02 | 50.50061 | 5.66085 | 38014 ft | 433 kts | 121° |
| 2026-04-30 11:02 | 50.48390 | 5.70015 | 38290 ft | 432 kts | 122° |
| 2026-04-30 11:03 | 50.46702 | 5.73913 | 38485 ft | 433 kts | 122° |
| 2026-04-30 11:03 | 50.45009 | 5.77828 | 38667 ft | 433 kts | 122° |
| 2026-04-30 11:03 | 50.43325 | 5.81748 | 38891 ft | 433 kts | 122° |
| 2026-04-30 11:04 | 50.39977 | 5.89597 | 39221 ft | 433 kts | 121° |
| 2026-04-30 11:04 | 50.36621 | 5.97482 | 39312 ft | 435 kts | 121° |
| 2026-04-30 11:05 | 50.33256 | 6.05365 | 39310 ft | 436 kts | 121° |
| 2026-04-30 11:05 | 50.29882 | 6.13264 | 39323 ft | 436 kts | 119° |
| 2026-04-30 11:06 | 50.26932 | 6.21535 | 39328 ft | 436 kts | 116° |
| 2026-04-30 11:06 | 50.24080 | 6.29894 | 39324 ft | 436 kts | 116° |
| 2026-04-30 11:07 | 50.21187 | 6.38215 | 39316 ft | 436 kts | 117° |
| 2026-04-30 11:07 | 50.18468 | 6.46655 | 39314 ft | 434 kts | 107° |
| 2026-04-30 11:08 | 50.16913 | 6.55649 | 39315 ft | 431 kts | 102° |
| 2026-04-30 11:08 | 50.15484 | 6.64726 | 39321 ft | 431 kts | 102° |
| 2026-04-30 11:09 | 50.14025 | 6.73780 | 39327 ft | 431 kts | 102° |
| 2026-04-30 11:09 | 50.12537 | 6.82819 | 39360 ft | 431 kts | 102° |
| 2026-04-30 11:10 | 50.11035 | 6.91849 | 39372 ft | 430 kts | 102° |
| 2026-04-30 11:10 | 50.09524 | 7.00871 | 39372 ft | 430 kts | 102° |
| 2026-04-30 11:11 | 50.08009 | 7.09882 | 39374 ft | 430 kts | 102° |
| 2026-04-30 11:11 | 50.06485 | 7.18897 | 39350 ft | 430 kts | 102° |
| 2026-04-30 11:12 | 50.04956 | 7.27898 | 39349 ft | 430 kts | 102° |
| 2026-04-30 11:12 | 50.03418 | 7.36902 | 39353 ft | 431 kts | 102° |
| 2026-04-30 11:13 | 50.01870 | 7.45924 | 39355 ft | 432 kts | 102° |
| 2026-04-30 11:13 | 50.00312 | 7.54947 | 39375 ft | 432 kts | 102° |
| 2026-04-30 11:14 | 49.99013 | 7.62442 | 39369 ft | 432 kts | 102° |
| 2026-04-30 11:14 | 49.97441 | 7.71469 | 39374 ft | 433 kts | 102° |
| 2026-04-30 11:15 | 49.95860 | 7.80497 | 39373 ft | 434 kts | 102° |
| 2026-04-30 11:15 | 49.94270 | 7.89534 | 39387 ft | 434 kts | 102° |
| 2026-04-30 11:16 | 49.92670 | 7.98582 | 39384 ft | 435 kts | 102° |
| 2026-04-30 11:16 | 49.91061 | 8.07636 | 39389 ft | 436 kts | 102° |
| 2026-04-30 11:17 | 49.89442 | 8.16698 | 39383 ft | 436 kts | 102° |
| 2026-04-30 11:17 | 49.87817 | 8.25760 | 39394 ft | 436 kts | 102° |
| 2026-04-30 11:18 | 49.86193 | 8.34762 | 39382 ft | 436 kts | 102° |
| 2026-04-30 11:18 | 49.83938 | 8.43519 | 39382 ft | 442 kts | 116° |
| 2026-04-30 11:18 | 49.82188 | 8.47456 | 39375 ft | 446 kts | 124° |
| 2026-04-30 11:19 | 49.78289 | 8.54923 | 39376 ft | 446 kts | 125° |
| 2026-04-30 11:19 | 49.74376 | 8.62366 | 39374 ft | 446 kts | 125° |
| 2026-04-30 11:20 | 49.70506 | 8.69805 | 39372 ft | 445 kts | 124° |
| 2026-04-30 11:20 | 49.66662 | 8.77217 | 39372 ft | 445 kts | 124° |
| 2026-04-30 11:21 | 49.62745 | 8.84754 | 39371 ft | 445 kts | 124° |
| 2026-04-30 11:21 | 49.58917 | 8.92099 | 39367 ft | 445 kts | 125° |
| 2026-04-30 11:22 | 49.54981 | 8.99625 | 39381 ft | 446 kts | 124° |
| 2026-04-30 11:22 | 49.51093 | 9.07044 | 39360 ft | 445 kts | 124° |
| 2026-04-30 11:23 | 49.47194 | 9.14460 | 39360 ft | 445 kts | 124° |
| 2026-04-30 11:24 | 49.41990 | 9.26179 | 39356 ft | 442 kts | 118° |
| 2026-04-30 11:24 | 49.38677 | 9.34150 | 39357 ft | 443 kts | 118° |
| 2026-04-30 11:25 | 49.33628 | 9.46048 | 39372 ft | 445 kts | 118° |
| 2026-04-30 11:26 | 49.26823 | 9.61863 | 39361 ft | 447 kts | 119° |
| 2026-04-30 11:26 | 49.23391 | 9.69804 | 39365 ft | 447 kts | 119° |
| 2026-04-30 11:27 | 49.19954 | 9.77737 | 39378 ft | 448 kts | 119° |
| 2026-04-30 11:27 | 49.16498 | 9.85690 | 39387 ft | 449 kts | 119° |
| 2026-04-30 11:28 | 49.11303 | 9.97604 | 39374 ft | 449 kts | 119° |
| 2026-04-30 11:29 | 49.07832 | 10.05533 | 39373 ft | 450 kts | 119° |
| 2026-04-30 11:29 | 49.01595 | 10.16356 | 39373 ft | 457 kts | 131° |
| 2026-04-30 11:30 | 48.94741 | 10.26520 | 39390 ft | 459 kts | 130° |
| 2026-04-30 11:31 | 48.90201 | 10.33337 | 39390 ft | 459 kts | 130° |
| 2026-04-30 11:31 | 48.85665 | 10.40173 | 39388 ft | 460 kts | 130° |
| 2026-04-30 11:32 | 48.81121 | 10.47008 | 39390 ft | 460 kts | 130° |
| 2026-04-30 11:32 | 48.76571 | 10.53831 | 39405 ft | 461 kts | 130° |
| 2026-04-30 11:33 | 48.69740 | 10.64036 | 39380 ft | 462 kts | 130° |
| 2026-04-30 11:33 | 48.65156 | 10.70862 | 39367 ft | 463 kts | 130° |
| 2026-04-30 11:34 | 48.60562 | 10.77685 | 39383 ft | 463 kts | 130° |
| 2026-04-30 11:34 | 48.56197 | 10.84787 | 39369 ft | 459 kts | 125° |
| 2026-04-30 11:35 | 48.52207 | 10.92298 | 39375 ft | 459 kts | 123° |
| 2026-04-30 11:35 | 48.48226 | 10.99853 | 39354 ft | 460 kts | 124° |
| 2026-04-30 11:36 | 48.44196 | 11.07374 | 39350 ft | 462 kts | 124° |
| 2026-04-30 11:36 | 48.40130 | 11.14876 | 39348 ft | 462 kts | 124° |
| 2026-04-30 11:37 | 48.36056 | 11.22358 | 39346 ft | 463 kts | 124° |
| 2026-04-30 11:37 | 48.31966 | 11.29849 | 39362 ft | 464 kts | 124° |
| 2026-04-30 11:38 | 48.27865 | 11.37343 | 39357 ft | 465 kts | 124° |
| 2026-04-30 11:38 | 48.23753 | 11.44836 | 39353 ft | 465 kts | 124° |
| 2026-04-30 11:39 | 48.19659 | 11.52277 | 39352 ft | 466 kts | 124° |
| 2026-04-30 11:39 | 48.15530 | 11.59759 | 39378 ft | 466 kts | 125° |
| 2026-04-30 11:40 | 48.11390 | 11.67242 | 39378 ft | 467 kts | 125° |
| 2026-04-30 11:40 | 48.07244 | 11.74714 | 39369 ft | 467 kts | 125° |
| 2026-04-30 11:41 | 48.03085 | 11.82189 | 39358 ft | 468 kts | 125° |
| 2026-04-30 11:41 | 47.98916 | 11.89661 | 39365 ft | 468 kts | 125° |
| 2026-04-30 11:42 | 47.94737 | 11.97131 | 39381 ft | 469 kts | 125° |
| 2026-04-30 11:42 | 47.90551 | 12.04591 | 39359 ft | 469 kts | 125° |
| 2026-04-30 11:43 | 47.86354 | 12.12051 | 39359 ft | 470 kts | 126° |
| 2026-04-30 11:43 | 47.82151 | 12.19503 | 39351 ft | 470 kts | 126° |
| 2026-04-30 11:44 | 47.77941 | 12.26945 | 39347 ft | 470 kts | 126° |
| 2026-04-30 11:44 | 47.73720 | 12.34387 | 39340 ft | 471 kts | 126° |
| 2026-04-30 11:45 | 47.69486 | 12.41832 | 39331 ft | 471 kts | 126° |
| 2026-04-30 11:45 | 47.65281 | 12.49207 | 39346 ft | 471 kts | 126° |
| 2026-04-30 11:46 | 47.60907 | 12.56475 | 39311 ft | 474 kts | 132° |
| 2026-04-30 11:46 | 47.56075 | 12.63114 | 39365 ft | 473 kts | 134° |
| 2026-04-30 11:47 | 47.51173 | 12.69669 | 39308 ft | 475 kts | 134° |
| 2026-04-30 11:47 | 47.46287 | 12.76272 | 39313 ft | 477 kts | 134° |
| 2026-04-30 11:48 | 47.41397 | 12.82927 | 39297 ft | 479 kts | 134° |
| 2026-04-30 11:48 | 47.36496 | 12.89602 | 39299 ft | 480 kts | 134° |
| 2026-04-30 11:49 | 47.31576 | 12.96284 | 39300 ft | 482 kts | 134° |
| 2026-04-30 11:49 | 47.26632 | 13.02977 | 39283 ft | 483 kts | 134° |
| 2026-04-30 11:50 | 47.21678 | 13.09664 | 39270 ft | 484 kts | 134° |
| 2026-04-30 11:50 | 47.16715 | 13.16343 | 39275 ft | 484 kts | 134° |
| 2026-04-30 11:51 | 47.11743 | 13.23018 | 39274 ft | 484 kts | 134° |
| 2026-04-30 11:51 | 47.06783 | 13.29664 | 39299 ft | 482 kts | 134° |
| 2026-04-30 11:52 | 47.01823 | 13.36288 | 39263 ft | 483 kts | 135° |
| 2026-04-30 11:52 | 46.96859 | 13.42898 | 39290 ft | 479 kts | 135° |
| 2026-04-30 11:53 | 46.91917 | 13.49463 | 39285 ft | 480 kts | 135° |
| 2026-04-30 11:53 | 46.87002 | 13.55975 | 39294 ft | 481 kts | 135° |
| 2026-04-30 11:54 | 46.82032 | 13.62545 | 39284 ft | 481 kts | 135° |
| 2026-04-30 11:54 | 46.77068 | 13.69090 | 39304 ft | 481 kts | 135° |
| 2026-04-30 11:55 | 46.72101 | 13.75622 | 39303 ft | 481 kts | 136° |
| 2026-04-30 11:55 | 46.67119 | 13.82156 | 39298 ft | 482 kts | 136° |
| 2026-04-30 11:56 | 46.62128 | 13.88684 | 39337 ft | 483 kts | 136° |
| 2026-04-30 11:56 | 46.57130 | 13.95205 | 39322 ft | 483 kts | 136° |
| 2026-04-30 11:57 | 46.52113 | 14.01735 | 39316 ft | 484 kts | 136° |
| 2026-04-30 11:57 | 46.47096 | 14.08247 | 39319 ft | 484 kts | 136° |
| 2026-04-30 11:58 | 46.42925 | 14.13649 | 39326 ft | 483 kts | 137° |
| 2026-04-30 11:58 | 46.37073 | 14.21208 | 39344 ft | 482 kts | 137° |
| 2026-04-30 11:59 | 46.32097 | 14.27621 | 39346 ft | 482 kts | 137° |
| 2026-04-30 11:59 | 46.27084 | 14.34064 | 39344 ft | 483 kts | 137° |
| 2026-04-30 12:00 | 46.22305 | 14.40883 | 39350 ft | 483 kts | 132° |
| 2026-04-30 12:00 | 46.17703 | 14.47951 | 39350 ft | 484 kts | 131° |
| 2026-04-30 12:01 | 46.13863 | 14.53842 | 39355 ft | 485 kts | 132° |
| 2026-04-30 12:01 | 46.09210 | 14.60901 | 39346 ft | 487 kts | 133° |
| 2026-04-30 12:02 | 46.04524 | 14.67952 | 39344 ft | 488 kts | 133° |
| 2026-04-30 12:02 | 45.99821 | 14.75000 | 39334 ft | 488 kts | 133° |
| 2026-04-30 12:03 | 45.92744 | 14.85579 | 39353 ft | 490 kts | 133° |
| 2026-04-30 12:04 | 45.88015 | 14.92626 | 39350 ft | 490 kts | 133° |
| 2026-04-30 12:04 | 45.83267 | 14.99684 | 39354 ft | 491 kts | 133° |
| 2026-04-30 12:05 | 45.78551 | 15.06677 | 39354 ft | 491 kts | 133° |
| 2026-04-30 12:05 | 45.73766 | 15.13752 | 39374 ft | 492 kts | 133° |
| 2026-04-30 12:06 | 45.69033 | 15.20732 | 39362 ft | 492 kts | 133° |
| 2026-04-30 12:06 | 45.64254 | 15.27762 | 39362 ft | 492 kts | 133° |
| 2026-04-30 12:07 | 45.59476 | 15.34772 | 39364 ft | 492 kts | 133° |
| 2026-04-30 12:07 | 45.54691 | 15.41775 | 39356 ft | 492 kts | 133° |
| 2026-04-30 12:08 | 45.49910 | 15.48753 | 39350 ft | 492 kts | 133° |
| 2026-04-30 12:08 | 45.45114 | 15.55735 | 39356 ft | 492 kts | 133° |
| 2026-04-30 12:09 | 45.40312 | 15.62709 | 39357 ft | 493 kts | 133° |
| 2026-04-30 12:09 | 45.35539 | 15.69622 | 39362 ft | 493 kts | 133° |
| 2026-04-30 12:10 | 45.30719 | 15.76586 | 39352 ft | 494 kts | 133° |
| 2026-04-30 12:10 | 45.25911 | 15.83518 | 39328 ft | 494 kts | 134° |
| 2026-04-30 12:11 | 45.21060 | 15.90488 | 39346 ft | 494 kts | 134° |
| 2026-04-30 12:11 | 45.16198 | 15.97406 | 39361 ft | 495 kts | 134° |
| 2026-04-30 12:12 | 45.11330 | 16.04298 | 39350 ft | 495 kts | 134° |
| 2026-04-30 12:12 | 45.06483 | 16.11150 | 39335 ft | 496 kts | 134° |
| 2026-04-30 12:13 | 45.01607 | 16.18031 | 39331 ft | 496 kts | 134° |
| 2026-04-30 12:13 | 44.96730 | 16.24899 | 39350 ft | 495 kts | 135° |
| 2026-04-30 12:14 | 44.91852 | 16.31750 | 39337 ft | 495 kts | 135° |
| 2026-04-30 12:14 | 44.86972 | 16.38586 | 39332 ft | 494 kts | 135° |
| 2026-04-30 12:15 | 44.82085 | 16.45415 | 39333 ft | 494 kts | 135° |
| 2026-04-30 12:15 | 44.77208 | 16.52212 | 39327 ft | 493 kts | 135° |
| 2026-04-30 12:16 | 44.72329 | 16.58997 | 39326 ft | 493 kts | 135° |
| 2026-04-30 12:16 | 44.67452 | 16.65759 | 39319 ft | 492 kts | 135° |
| 2026-04-30 12:17 | 44.60135 | 16.75876 | 39316 ft | 491 kts | 135° |
| 2026-04-30 12:17 | 44.55261 | 16.82593 | 39328 ft | 491 kts | 136° |
| 2026-04-30 12:18 | 44.50380 | 16.89304 | 39291 ft | 491 kts | 136° |
| 2026-04-30 12:18 | 44.45532 | 16.95952 | 39307 ft | 491 kts | 136° |
| 2026-04-30 12:19 | 44.40618 | 17.02674 | 39312 ft | 491 kts | 136° |
| 2026-04-30 12:19 | 44.35765 | 17.09298 | 39320 ft | 491 kts | 136° |
| 2026-04-30 12:20 | 44.30827 | 17.16019 | 39374 ft | 494 kts | 136° |
| 2026-04-30 12:20 | 44.28397 | 17.19322 | 39595 ft | 493 kts | 136° |
| 2026-04-30 12:20 | 44.25914 | 17.22691 | 39823 ft | 491 kts | 137° |
| 2026-04-30 12:21 | 44.23494 | 17.25971 | 39986 ft | 491 kts | 137° |
| 2026-04-30 12:21 | 44.21042 | 17.29292 | 40116 ft | 492 kts | 137° |
| 2026-04-30 12:21 | 44.18580 | 17.32619 | 40245 ft | 493 kts | 137° |
| 2026-04-30 12:21 | 44.16122 | 17.35939 | 40430 ft | 492 kts | 137° |
| 2026-04-30 12:22 | 44.13657 | 17.39264 | 40631 ft | 491 kts | 137° |
| 2026-04-30 12:22 | 44.11208 | 17.42563 | 40812 ft | 490 kts | 137° |
| 2026-04-30 12:22 | 44.08754 | 17.45865 | 40950 ft | 491 kts | 137° |
| 2026-04-30 12:22 | 44.06300 | 17.49162 | 41087 ft | 491 kts | 137° |
| 2026-04-30 12:23 | 44.03850 | 17.52452 | 41238 ft | 491 kts | 137° |
| 2026-04-30 12:23 | 44.01439 | 17.55684 | 41238 ft | 489 kts | 137° |
| 2026-04-30 12:23 | 43.96588 | 17.62176 | 41279 ft | 491 kts | 137° |
| 2026-04-30 12:24 | 43.91545 | 17.68906 | 41269 ft | 496 kts | 137° |
| 2026-04-30 12:24 | 43.86551 | 17.75556 | 41257 ft | 499 kts | 137° |
| 2026-04-30 12:25 | 43.81539 | 17.82216 | 41240 ft | 499 kts | 137° |
| 2026-04-30 12:25 | 43.76588 | 17.88780 | 41225 ft | 493 kts | 138° |
| 2026-04-30 12:26 | 43.71655 | 17.95303 | 41233 ft | 490 kts | 138° |
| 2026-04-30 12:26 | 43.66739 | 18.01786 | 41231 ft | 488 kts | 138° |
| 2026-04-30 12:27 | 43.61827 | 18.08248 | 41231 ft | 486 kts | 138° |
| 2026-04-30 12:27 | 43.56930 | 18.14675 | 41210 ft | 486 kts | 138° |
| 2026-04-30 12:28 | 43.52026 | 18.21097 | 41193 ft | 487 kts | 139° |
| 2026-04-30 12:28 | 43.47105 | 18.27525 | 41211 ft | 489 kts | 139° |
| 2026-04-30 12:29 | 43.42149 | 18.33984 | 41213 ft | 492 kts | 139° |
| 2026-04-30 12:29 | 43.37161 | 18.40469 | 41213 ft | 495 kts | 139° |
| 2026-04-30 12:30 | 43.32131 | 18.46995 | 41204 ft | 498 kts | 139° |
| 2026-04-30 12:30 | 43.27079 | 18.53532 | 41205 ft | 500 kts | 139° |
| 2026-04-30 12:31 | 43.22014 | 18.60072 | 41198 ft | 500 kts | 139° |
| 2026-04-30 12:31 | 43.16943 | 18.66603 | 41192 ft | 500 kts | 139° |
| 2026-04-30 12:32 | 43.11885 | 18.73102 | 41195 ft | 498 kts | 139° |
| 2026-04-30 12:32 | 43.06833 | 18.79579 | 41203 ft | 497 kts | 139° |
| 2026-04-30 12:33 | 43.01794 | 18.86022 | 41200 ft | 495 kts | 139° |
| 2026-04-30 12:33 | 42.96764 | 18.92439 | 41211 ft | 494 kts | 139° |
| 2026-04-30 12:34 | 42.91776 | 18.98787 | 41209 ft | 493 kts | 139° |
| 2026-04-30 12:34 | 42.86751 | 19.05167 | 41214 ft | 493 kts | 139° |
| 2026-04-30 12:35 | 42.81731 | 19.11526 | 41199 ft | 493 kts | 139° |
| 2026-04-30 12:35 | 42.76705 | 19.17879 | 41200 ft | 493 kts | 140° |
| 2026-04-30 12:36 | 42.71681 | 19.24213 | 41201 ft | 492 kts | 140° |
| 2026-04-30 12:36 | 42.66650 | 19.30543 | 41200 ft | 493 kts | 140° |
| 2026-04-30 12:37 | 42.61614 | 19.36863 | 41183 ft | 492 kts | 140° |
| 2026-04-30 12:37 | 42.56579 | 19.43169 | 41196 ft | 493 kts | 140° |
| 2026-04-30 12:38 | 42.51530 | 19.49476 | 41196 ft | 494 kts | 140° |
| 2026-04-30 12:38 | 42.46465 | 19.55789 | 41201 ft | 495 kts | 140° |
| 2026-04-30 12:39 | 42.41390 | 19.62100 | 41207 ft | 496 kts | 140° |
| 2026-04-30 12:39 | 42.36291 | 19.68428 | 41214 ft | 497 kts | 140° |
| 2026-04-30 12:40 | 42.31186 | 19.74748 | 41216 ft | 498 kts | 140° |
| 2026-04-30 12:40 | 42.26071 | 19.81066 | 41228 ft | 498 kts | 141° |
| 2026-04-30 12:41 | 42.20984 | 19.87333 | 41209 ft | 499 kts | 141° |
| 2026-04-30 12:41 | 42.15858 | 19.93637 | 41230 ft | 498 kts | 141° |
| 2026-04-30 12:42 | 42.10799 | 19.99842 | 41226 ft | 498 kts | 141° |
| 2026-04-30 12:42 | 42.05623 | 20.06177 | 41230 ft | 496 kts | 141° |
| 2026-04-30 12:43 | 42.00506 | 20.12426 | 41214 ft | 496 kts | 141° |
| 2026-04-30 12:43 | 41.95394 | 20.18654 | 41220 ft | 495 kts | 141° |
| 2026-04-30 12:44 | 41.90283 | 20.24867 | 41202 ft | 495 kts | 141° |
| 2026-04-30 12:44 | 41.85164 | 20.31075 | 41214 ft | 495 kts | 141° |
| 2026-04-30 12:45 | 41.80054 | 20.37259 | 41204 ft | 495 kts | 141° |
| 2026-04-30 12:45 | 41.74937 | 20.43439 | 41199 ft | 495 kts | 141° |
| 2026-04-30 12:46 | 41.69816 | 20.49612 | 41186 ft | 496 kts | 141° |
| 2026-04-30 12:46 | 41.64622 | 20.55678 | 41167 ft | 495 kts | 144° |
| 2026-04-30 12:47 | 41.59267 | 20.61327 | 41154 ft | 493 kts | 146° |
| 2026-04-30 12:47 | 41.53840 | 20.66939 | 41164 ft | 493 kts | 146° |
| 2026-04-30 12:48 | 41.48435 | 20.72581 | 41116 ft | 493 kts | 146° |
| 2026-04-30 12:48 | 41.43955 | 20.77284 | 41122 ft | 492 kts | 146° |
| 2026-04-30 12:49 | 41.38578 | 20.82929 | 41107 ft | 492 kts | 146° |
| 2026-04-30 12:49 | 41.33194 | 20.88566 | 41112 ft | 492 kts | 146° |
| 2026-04-30 12:50 | 41.27809 | 20.94188 | 41081 ft | 492 kts | 146° |
| 2026-04-30 12:50 | 41.22428 | 20.99795 | 41085 ft | 491 kts | 146° |
| 2026-04-30 12:51 | 41.17056 | 21.05381 | 41101 ft | 490 kts | 146° |
| 2026-04-30 12:51 | 41.11692 | 21.10945 | 41091 ft | 489 kts | 146° |
| 2026-04-30 12:52 | 41.06420 | 21.16404 | 41086 ft | 488 kts | 146° |
| 2026-04-30 12:52 | 41.01015 | 21.21988 | 41067 ft | 487 kts | 146° |
| 2026-04-30 12:53 | 40.95685 | 21.27483 | 41077 ft | 486 kts | 147° |
| 2026-04-30 12:53 | 40.90335 | 21.32938 | 41071 ft | 483 kts | 149° |
| 2026-04-30 12:54 | 40.84814 | 21.37939 | 41090 ft | 481 kts | 151° |
| 2026-04-30 12:54 | 40.79219 | 21.42779 | 41059 ft | 481 kts | 151° |
| 2026-04-30 12:55 | 40.73642 | 21.47642 | 41079 ft | 480 kts | 151° |
| 2026-04-30 12:55 | 40.68081 | 21.52542 | 41051 ft | 481 kts | 151° |
| 2026-04-30 12:56 | 40.62535 | 21.57443 | 41037 ft | 480 kts | 151° |
| 2026-04-30 12:56 | 40.56999 | 21.62327 | 41042 ft | 479 kts | 151° |
| 2026-04-30 12:57 | 40.51462 | 21.67199 | 41019 ft | 478 kts | 150° |
| 2026-04-30 12:57 | 40.45930 | 21.72055 | 41034 ft | 479 kts | 150° |
| 2026-04-30 12:58 | 40.40361 | 21.76931 | 41025 ft | 483 kts | 150° |
| 2026-04-30 12:58 | 40.34794 | 21.81797 | 41011 ft | 486 kts | 150° |
| 2026-04-30 12:59 | 40.29161 | 21.86712 | 41012 ft | 487 kts | 150° |
| 2026-04-30 12:59 | 40.23512 | 21.91632 | 41026 ft | 488 kts | 150° |
| 2026-04-30 13:00 | 40.17844 | 21.96557 | 41024 ft | 490 kts | 150° |
| 2026-04-30 13:00 | 40.12150 | 22.01495 | 41011 ft | 492 kts | 150° |
| 2026-04-30 13:01 | 40.06446 | 22.06431 | 41007 ft | 491 kts | 150° |
| 2026-04-30 13:01 | 40.00753 | 22.11349 | 40985 ft | 490 kts | 150° |
| 2026-04-30 13:02 | 39.95132 | 22.16195 | 40988 ft | 488 kts | 150° |
| 2026-04-30 13:02 | 39.89433 | 22.21097 | 40994 ft | 486 kts | 150° |
| 2026-04-30 13:03 | 39.83784 | 22.25934 | 40994 ft | 484 kts | 151° |
| 2026-04-30 13:03 | 39.78025 | 22.30416 | 40960 ft | 481 kts | 154° |
| 2026-04-30 13:04 | 39.72233 | 22.34722 | 40973 ft | 479 kts | 154° |
| 2026-04-30 13:04 | 39.66458 | 22.39048 | 40980 ft | 478 kts | 154° |
| 2026-04-30 13:05 | 39.60711 | 22.43398 | 40976 ft | 478 kts | 153° |
| 2026-04-30 13:06 | 39.52130 | 22.49910 | 40962 ft | 478 kts | 154° |
| 2026-04-30 13:06 | 39.46386 | 22.54259 | 40976 ft | 478 kts | 154° |
| 2026-04-30 13:07 | 39.40631 | 22.58606 | 40983 ft | 479 kts | 154° |
| 2026-04-30 13:07 | 39.34869 | 22.62949 | 40995 ft | 480 kts | 154° |
| 2026-04-30 13:08 | 39.29087 | 22.67298 | 40997 ft | 481 kts | 154° |
| 2026-04-30 13:08 | 39.23305 | 22.71639 | 40988 ft | 481 kts | 154° |
| 2026-04-30 13:09 | 39.17507 | 22.75984 | 40996 ft | 481 kts | 154° |
| 2026-04-30 13:09 | 39.11707 | 22.80322 | 41001 ft | 482 kts | 154° |
| 2026-04-30 13:10 | 39.05906 | 22.84652 | 40988 ft | 482 kts | 154° |
| 2026-04-30 13:10 | 39.00109 | 22.88972 | 40984 ft | 482 kts | 154° |
| 2026-04-30 13:11 | 38.94306 | 22.93287 | 40996 ft | 482 kts | 154° |
| 2026-04-30 13:11 | 38.88504 | 22.97593 | 40997 ft | 482 kts | 154° |
| 2026-04-30 13:12 | 38.82698 | 23.01893 | 40985 ft | 482 kts | 154° |
| 2026-04-30 13:12 | 38.76896 | 23.06184 | 40971 ft | 481 kts | 154° |
| 2026-04-30 13:13 | 38.68223 | 23.12581 | 40982 ft | 481 kts | 154° |
| 2026-04-30 13:14 | 38.59526 | 23.18978 | 40991 ft | 481 kts | 154° |
| 2026-04-30 13:14 | 38.50829 | 23.25357 | 40974 ft | 481 kts | 155° |
| 2026-04-30 13:15 | 38.42119 | 23.31728 | 40993 ft | 481 kts | 155° |
| 2026-04-30 13:16 | 38.36315 | 23.35963 | 40991 ft | 481 kts | 155° |
| 2026-04-30 13:16 | 38.30502 | 23.40197 | 40991 ft | 482 kts | 155° |
| 2026-04-30 13:17 | 38.21764 | 23.46546 | 41001 ft | 482 kts | 155° |
| 2026-04-30 13:18 | 38.13013 | 23.52887 | 41000 ft | 483 kts | 155° |
| 2026-04-30 13:18 | 38.04294 | 23.59187 | 41004 ft | 483 kts | 155° |
| 2026-04-30 13:19 | 37.98453 | 23.63399 | 40986 ft | 483 kts | 155° |
| 2026-04-30 13:19 | 37.92619 | 23.67598 | 41010 ft | 482 kts | 155° |
| 2026-04-30 13:20 | 37.86789 | 23.71785 | 41016 ft | 482 kts | 155° |
| 2026-04-30 13:20 | 37.80953 | 23.75969 | 41010 ft | 482 kts | 155° |
| 2026-04-30 13:21 | 37.75117 | 23.80146 | 40994 ft | 481 kts | 155° |
| 2026-04-30 13:22 | 37.66374 | 23.86389 | 41013 ft | 481 kts | 155° |
| 2026-04-30 13:22 | 37.57629 | 23.92615 | 41005 ft | 481 kts | 155° |
| 2026-04-30 13:23 | 37.48873 | 23.98833 | 40986 ft | 482 kts | 156° |
| 2026-04-30 13:24 | 37.37179 | 24.07111 | 41008 ft | 483 kts | 155° |
| 2026-04-30 13:25 | 37.25441 | 24.15390 | 41009 ft | 484 kts | 156° |
| 2026-04-30 13:26 | 37.10770 | 24.25696 | 41008 ft | 485 kts | 156° |
| 2026-04-30 13:28 | 36.96010 | 24.36018 | 40991 ft | 486 kts | 156° |
| 2026-04-30 13:28 | 36.87143 | 24.42198 | 41013 ft | 487 kts | 156° |
| 2026-04-30 13:29 | 36.81204 | 24.46325 | 40702 ft | 493 kts | 156° |
| 2026-04-30 13:29 | 36.75221 | 24.50477 | 39661 ft | 490 kts | 156° |
| 2026-04-30 13:30 | 36.66281 | 24.56670 | 37569 ft | 489 kts | 156° |
| 2026-04-30 13:31 | 36.60359 | 24.60764 | 36174 ft | 485 kts | 156° |
| 2026-04-30 13:31 | 36.51593 | 24.66806 | 33754 ft | 484 kts | 155° |
| 2026-04-30 13:32 | 36.45628 | 24.70909 | 31816 ft | 483 kts | 155° |
| 2026-04-30 13:32 | 36.39745 | 24.74948 | 29842 ft | 485 kts | 155° |
| 2026-04-30 13:33 | 36.33824 | 24.79004 | 27641 ft | 485 kts | 155° |
| 2026-04-30 13:33 | 36.28008 | 24.82990 | 26044 ft | 472 kts | 154° |
| 2026-04-30 13:34 | 36.25145 | 24.84948 | 25232 ft | 467 kts | 154° |
| 2026-04-30 13:34 | 36.17645 | 24.90066 | 23023 ft | 457 kts | 153° |
| 2026-04-30 13:35 | 36.14872 | 24.91955 | 22154 ft | 453 kts | 153° |
| 2026-04-30 13:35 | 36.09415 | 24.95669 | 20534 ft | 444 kts | 153° |
| 2026-04-30 13:36 | 36.04047 | 24.99315 | 18937 ft | 437 kts | 153° |
| 2026-04-30 13:36 | 36.01390 | 25.01118 | 18134 ft | 434 kts | 153° |
| 2026-04-30 13:36 | 35.96120 | 25.04689 | 16401 ft | 428 kts | 153° |
| 2026-04-30 13:37 | 35.93516 | 25.06453 | 15591 ft | 425 kts | 153° |
| 2026-04-30 13:37 | 35.88372 | 25.09932 | 14024 ft | 419 kts | 153° |
| 2026-04-30 13:38 | 35.83296 | 25.13359 | 12342 ft | 413 kts | 153° |
| 2026-04-30 13:38 | 35.80791 | 25.15049 | 11534 ft | 409 kts | 153° |
| 2026-04-30 13:38 | 35.75879 | 25.18361 | 10498 ft | 388 kts | 153° |
| 2026-04-30 13:39 | 35.71464 | 25.21339 | 10197 ft | 340 kts | 153° |
| 2026-04-30 13:39 | 35.67548 | 25.23973 | 9875 ft | 304 kts | 154° |
| 2026-04-30 13:40 | 35.65682 | 25.25224 | 9319 ft | 303 kts | 154° |
| 2026-04-30 13:40 | 35.63853 | 25.26449 | 8889 ft | 297 kts | 154° |
| 2026-04-30 13:40 | 35.62033 | 25.27668 | 8478 ft | 298 kts | 153° |
| 2026-04-30 13:40 | 35.60211 | 25.28888 | 8080 ft | 298 kts | 153° |
| 2026-04-30 13:41 | 35.58389 | 25.30108 | 7677 ft | 298 kts | 153° |
| 2026-04-30 13:41 | 35.56564 | 25.31330 | 7275 ft | 298 kts | 153° |
| 2026-04-30 13:41 | 35.54760 | 25.32539 | 6867 ft | 292 kts | 153° |
| 2026-04-30 13:41 | 35.52993 | 25.33721 | 6471 ft | 286 kts | 153° |
| 2026-04-30 13:42 | 35.51267 | 25.34877 | 6059 ft | 280 kts | 153° |
| 2026-04-30 13:42 | 35.49578 | 25.36007 | 5680 ft | 274 kts | 153° |
| 2026-04-30 13:42 | 35.46361 | 25.38157 | 5193 ft | 246 kts | 153° |
| 2026-04-30 13:43 | 35.44923 | 25.39119 | 5067 ft | 231 kts | 153° |
| 2026-04-30 13:43 | 35.43550 | 25.40057 | 4961 ft | 215 kts | 153° |
| 2026-04-30 13:43 | 35.42281 | 25.40929 | 4903 ft | 210 kts | 153° |
| 2026-04-30 13:43 | 35.41007 | 25.41804 | 4827 ft | 208 kts | 153° |
| 2026-04-30 13:44 | 35.39788 | 25.42642 | 4761 ft | 194 kts | 153° |
| 2026-04-30 13:44 | 35.38633 | 25.43435 | 4659 ft | 187 kts | 153° |
| 2026-04-30 13:44 | 35.37465 | 25.44117 | 4466 ft | 184 kts | 173° |
| 2026-04-30 13:44 | 35.36281 | 25.43888 | 4281 ft | 170 kts | 212° |
| 2026-04-30 13:45 | 35.35000 | 25.41660 | 3930 ft | 164 kts | 244° |
| 2026-04-30 13:45 | 35.34509 | 25.40400 | 3715 ft | 163 kts | 244° |
| 2026-04-30 13:45 | 35.34025 | 25.39152 | 3516 ft | 162 kts | 244° |
| 2026-04-30 13:46 | 35.33546 | 25.37908 | 3344 ft | 162 kts | 244° |
| 2026-04-30 13:46 | 35.33057 | 25.36644 | 3141 ft | 165 kts | 244° |
| 2026-04-30 13:46 | 35.32749 | 25.35315 | 2886 ft | 164 kts | 275° |
| 2026-04-30 13:46 | 35.32868 | 25.33968 | 2736 ft | 158 kts | 274° |
| 2026-04-30 13:47 | 35.32962 | 25.32612 | 2507 ft | 162 kts | 275° |
| 2026-04-30 13:47 | 35.33059 | 25.31225 | 2271 ft | 164 kts | 275° |
| 2026-04-30 13:47 | 35.33155 | 25.29831 | 2021 ft | 164 kts | 275° |
| 2026-04-30 13:47 | 35.33252 | 25.28444 | 1773 ft | 163 kts | 275° |
| 2026-04-30 13:48 | 35.33348 | 25.27071 | 1526 ft | 160 kts | 275° |
| 2026-04-30 13:48 | 35.33440 | 25.25755 | 1333 ft | 146 kts | 275° |
| 2026-04-30 13:48 | 35.33524 | 25.24548 | 1079 ft | 139 kts | 275° |
| 2026-04-30 13:48 | 35.33609 | 25.23328 | 908 ft | 146 kts | 275° |
| 2026-04-30 13:49 | 35.33694 | 25.22094 | 651 ft | 142 kts | 276° |
| 2026-04-30 13:49 | 35.33774 | 25.20914 | 431 ft | 138 kts | 275° |
| 2026-04-30 13:49 | 35.33847 | 25.19740 | 265 ft | 139 kts | 275° |
| 2026-04-30 13:49 | 35.33937 | 25.18561 | 108 ft | 137 kts | 275° |
| 2026-04-30 13:50 | 35.34004 | 25.17548 | 90 ft | 98 kts | 276° |
| 2026-04-30 13:50 | 35.34041 | 25.16859 | 62 ft | 8 kts | 215° |
| 2026-04-30 13:50 | 35.34001 | 25.16893 | 70 ft | 8 kts | 125° |
| 2026-04-30 13:51 | 35.33990 | 25.16914 | 69 ft | 0 kts | 123° |
| 2026-04-30 13:51 | 35.33988 | 25.16916 | 70 ft | 1 kts | 123° |
| 2026-04-30 13:51 | 35.33977 | 25.16937 | 67 ft | 4 kts | 123° |
| 2026-04-30 13:52 | 35.33958 | 25.16977 | 71 ft | 7 kts | 116° |
| 2026-04-30 13:52 | 35.33944 | 25.17037 | 76 ft | 8 kts | 98° |
| 2026-04-30 13:52 | 35.33939 | 25.17109 | 74 ft | 8 kts | 94° |
| 2026-04-30 13:52 | 35.33934 | 25.17179 | 82 ft | 8 kts | 94° |
| 2026-04-30 13:53 | 35.33930 | 25.17248 | 81 ft | 8 kts | 95° |
| 2026-04-30 13:53 | 35.33926 | 25.17314 | 85 ft | 8 kts | 94° |
| 2026-04-30 13:53 | 35.33921 | 25.17383 | 84 ft | 8 kts | 95° |
| 2026-04-30 13:53 | 35.33916 | 25.17458 | 86 ft | 9 kts | 94° |
| 2026-04-30 13:54 | 35.33878 | 25.17503 | 88 ft | 9 kts | 180° |
| 2026-04-30 13:54 | 35.33859 | 25.17458 | 85 ft | 7 kts | 277° |
| 2026-04-30 13:54 | 35.33861 | 25.17435 | 84 ft | 0 kts | 275° |
| 2026-04-30 13:54 | 35.33861 | 25.17427 | 84 ft | 0 kts | 275° |